createdAt,value
2023-02-19T00:00:21.913Z,7.40
2023-02-19T00:06:09.161Z,7.42
2023-02-19T00:11:33.257Z,7.45
2023-02-19T00:16:54.802Z,7.45
2023-02-19T00:22:16.616Z,7.49
2023-02-19T00:27:38.349Z,7.45
2023-02-19T00:33:00.387Z,7.38
2023-02-19T00:38:22.408Z,7.32
2023-02-19T00:43:45.041Z,7.27
2023-02-19T00:49:08.708Z,7.23
2023-02-19T00:54:31.711Z,7.21
2023-02-19T00:59:53.641Z,7.16
2023-02-19T01:05:15.566Z,7.15
2023-02-19T01:10:37.487Z,7.08
2023-02-19T01:16:07.557Z,7.05
2023-02-19T01:21:30.586Z,7.02
2023-02-19T01:26:52.915Z,7.07
2023-02-19T01:32:14.810Z,7.13
2023-02-19T01:37:37.379Z,7.14
2023-02-19T01:43:00.007Z,7.06
2023-02-19T01:48:27.890Z,7.06
2023-02-19T01:53:55.104Z,7.06
2023-02-19T01:59:17.357Z,7.06
2023-02-19T02:04:39.470Z,7.04
2023-02-19T02:10:21.756Z,7.04
2023-02-19T02:16:23.077Z,7.05
2023-02-19T02:22:14.497Z,7.05
2023-02-19T02:27:55.274Z,7.06
2023-02-19T02:33:32.703Z,7.09
2023-02-19T02:38:58.717Z,7.08
2023-02-19T02:44:20.824Z,7.04
2023-02-19T02:50:02.605Z,7.06
2023-02-19T02:55:24.925Z,7.00
2023-02-19T03:01:09.244Z,6.93
2023-02-19T03:06:34.408Z,6.93
2023-02-19T03:12:18.308Z,6.95
2023-02-19T03:18:01.744Z,6.97
2023-02-19T03:23:46.720Z,6.96
2023-02-19T03:29:24.928Z,6.95
2023-02-19T03:34:57.307Z,6.96
2023-02-19T03:40:19.217Z,6.96
2023-02-19T03:46:01.737Z,7.04
2023-02-19T03:51:46.511Z,7.08
2023-02-19T03:57:24.127Z,7.14
2023-02-19T04:03:06.501Z,7.15
2023-02-19T04:08:29.535Z,7.10
2023-02-19T04:14:01.612Z,7.12
2023-02-19T04:19:25.648Z,7.13
2023-02-19T04:24:52.992Z,7.10
2023-02-19T04:30:15.438Z,7.04
2023-02-19T04:35:37.216Z,7.00
2023-02-19T04:40:58.968Z,6.98
2023-02-19T04:46:21.032Z,6.97
2023-02-19T04:51:43.042Z,6.99
2023-02-19T04:57:04.958Z,6.98
2023-02-19T05:02:26.991Z,6.96
2023-02-19T05:07:49.325Z,6.98
2023-02-19T05:13:11.289Z,6.97
2023-02-19T05:18:34.897Z,6.98
2023-02-19T05:23:57.019Z,7.07
2023-02-19T05:29:18.860Z,7.17
2023-02-19T05:34:41.070Z,7.24
2023-02-19T05:40:03.181Z,7.28
2023-02-19T05:45:27.554Z,7.35
2023-02-19T05:50:49.667Z,7.30
2023-02-19T05:56:27.060Z,7.25
2023-02-19T06:01:50.409Z,7.22
2023-02-19T06:07:12.116Z,7.16
2023-02-19T06:12:34.043Z,7.12
2023-02-19T06:17:55.877Z,7.11
2023-02-19T06:23:18.004Z,7.12
2023-02-19T06:28:40.846Z,7.17
2023-02-19T06:34:06.205Z,7.25
2023-02-19T06:39:28.311Z,7.33
2023-02-19T06:44:50.051Z,7.38
2023-02-19T06:50:12.178Z,7.37
2023-02-19T06:55:33.713Z,7.36
2023-02-19T07:00:56.027Z,7.35
2023-02-19T07:06:17.630Z,7.35
2023-02-19T07:11:40.291Z,7.35
2023-02-19T07:17:03.518Z,7.32
2023-02-19T07:22:24.985Z,7.34
2023-02-19T07:27:46.690Z,7.32
2023-02-19T07:33:10.474Z,7.26
2023-02-19T07:38:32.741Z,7.25
2023-02-19T07:43:54.672Z,7.31
2023-02-19T07:49:16.806Z,7.44
2023-02-19T07:54:38.834Z,7.50
2023-02-19T08:00:01.175Z,7.67
2023-02-19T08:05:23.096Z,7.79
2023-02-19T08:11:03.293Z,7.89
2023-02-19T08:16:40.676Z,7.97
2023-02-19T08:22:04.391Z,7.99
2023-02-19T08:27:26.501Z,7.92
2023-02-19T08:32:48.665Z,7.88
2023-02-19T08:38:11.902Z,7.82
2023-02-19T08:43:34.636Z,7.83
2023-02-19T08:48:57.663Z,7.81
2023-02-19T08:54:19.392Z,7.86
2023-02-19T08:59:41.218Z,7.86
2023-02-19T09:05:03.995Z,7.87
2023-02-19T09:10:26.110Z,7.93
2023-02-19T09:15:48.626Z,7.94
2023-02-19T09:21:10.889Z,7.91
2023-02-19T09:26:32.874Z,7.83
2023-02-19T09:31:58.472Z,7.68
2023-02-19T09:37:20.347Z,7.54
2023-02-19T09:42:43.388Z,7.37
2023-02-19T09:48:06.514Z,7.28
2023-02-19T09:53:34.846Z,7.25
2023-02-19T09:58:58.621Z,7.23
2023-02-19T10:04:20.326Z,7.22
2023-02-19T10:09:42.227Z,7.15
2023-02-19T10:15:23.351Z,6.73
2023-02-19T10:20:47.063Z,6.29
2023-02-19T10:26:09.239Z,6.13
2023-02-19T10:31:32.872Z,6.09
2023-02-19T10:36:54.585Z,6.18
2023-02-19T10:42:24.121Z,6.13
2023-02-19T10:47:47.173Z,6.18
2023-02-19T10:53:22.200Z,6.22
2023-02-19T10:58:45.151Z,6.20
2023-02-19T11:04:18.145Z,6.16
2023-02-19T11:09:42.852Z,6.24
2023-02-19T11:15:32.374Z,6.31
2023-02-19T11:20:55.334Z,6.26
2023-02-19T11:26:26.108Z,6.22
2023-02-19T11:31:47.732Z,6.30
2023-02-19T11:37:21.159Z,6.37
2023-02-19T11:42:50.949Z,6.31
2023-02-19T11:48:29.602Z,6.23
2023-02-19T11:54:03.625Z,6.15
2023-02-19T11:59:57.680Z,6.02
2023-02-19T12:05:42.341Z,5.98
2023-02-19T12:11:24.704Z,5.91
2023-02-19T12:17:30.678Z,5.81
2023-02-19T12:23:13.765Z,5.73
2023-02-19T12:28:54.760Z,5.58
2023-02-19T12:34:19.705Z,5.55
2023-02-19T12:39:48.146Z,5.52
2023-02-19T12:45:28.281Z,5.49
2023-02-19T12:51:01.111Z,5.43
2023-02-19T12:56:28.410Z,5.32
2023-02-19T13:02:21.439Z,5.24
2023-02-19T13:07:57.502Z,5.20
2023-02-19T13:13:26.812Z,5.25
2023-02-19T13:18:52.301Z,5.22
2023-02-19T13:24:17.823Z,5.21
2023-02-19T13:30:17.700Z,5.21
2023-02-19T13:36:13.834Z,5.24
2023-02-19T13:41:41.074Z,5.28
2023-02-19T13:47:06.842Z,5.19
2023-02-19T13:52:28.252Z,5.24
2023-02-19T13:57:50.481Z,5.43
2023-02-19T14:03:39.735Z,5.61
2023-02-19T14:09:01.548Z,5.70
2023-02-19T14:14:23.076Z,5.71
2023-02-19T14:20:02.365Z,5.71
2023-02-19T14:25:27.113Z,5.69
2023-02-19T14:30:56.260Z,5.59
2023-02-19T14:36:32.756Z,5.54
2023-02-19T14:42:00.368Z,5.54
2023-02-19T14:47:27.917Z,5.46
2023-02-19T14:52:51.854Z,5.34
2023-02-19T14:58:17.899Z,5.24
2023-02-19T15:03:39.625Z,5.16
2023-02-19T15:09:07.313Z,5.18
2023-02-19T15:14:30.902Z,5.20
2023-02-19T15:19:53.318Z,5.17
2023-02-19T15:25:20.793Z,5.13
2023-02-19T15:30:42.522Z,5.10
2023-02-19T15:36:08.969Z,5.11
2023-02-19T15:41:34.075Z,5.11
2023-02-19T15:46:57.051Z,5.09
2023-02-19T15:52:27.669Z,4.98
2023-02-19T15:58:30.788Z,4.90
2023-02-19T16:03:54.413Z,4.86
2023-02-19T16:09:20.958Z,4.83
2023-02-19T16:14:42.498Z,4.78
2023-02-19T16:20:04.921Z,4.81
2023-02-19T16:25:41.996Z,4.82
2023-02-19T16:31:09.465Z,4.77
2023-02-19T16:36:41.822Z,4.73
2023-02-19T16:42:12.848Z,4.75
2023-02-19T16:47:38.089Z,4.74
2023-02-19T16:53:02.311Z,4.78
2023-02-19T16:58:23.786Z,4.75
2023-02-19T17:03:47.536Z,4.74
2023-02-19T17:09:09.654Z,4.75
2023-02-19T17:14:31.583Z,4.75
2023-02-19T17:19:53.606Z,4.76
2023-02-19T17:25:15.841Z,4.75
2023-02-19T17:30:40.009Z,4.67
2023-02-19T17:36:02.626Z,4.61
2023-02-19T17:41:24.331Z,4.55
2023-02-19T17:46:50.066Z,4.48
2023-02-19T17:52:17.764Z,4.44
2023-02-19T17:57:39.856Z,4.38
2023-02-19T18:03:01.705Z,4.40
2023-02-19T18:08:23.755Z,4.42
2023-02-19T18:13:46.245Z,4.33
2023-02-19T18:19:08.274Z,4.25
2023-02-19T18:24:30.169Z,4.13
2023-02-19T18:29:54.003Z,4.06
2023-02-19T18:35:17.491Z,3.95
2023-02-19T18:40:39.201Z,3.84
2023-02-19T18:46:01.117Z,3.81
2023-02-19T18:51:23.864Z,3.77
2023-02-19T18:56:48.310Z,3.72
2023-02-19T19:02:11.048Z,3.62
2023-02-19T19:07:32.569Z,3.61
2023-02-19T19:12:54.695Z,3.58
2023-02-19T19:18:16.535Z,3.49
2023-02-19T19:23:38.556Z,3.42
2023-02-19T19:29:01.290Z,3.35
2023-02-19T19:34:22.804Z,3.27
2023-02-19T19:39:45.196Z,3.21
2023-02-19T19:45:08.513Z,3.17
2023-02-19T19:50:30.514Z,3.13
2023-02-19T19:55:52.440Z,3.08
2023-02-19T20:01:15.205Z,3.05
2023-02-19T20:06:37.160Z,3.06
2023-02-19T20:11:58.930Z,3.05
2023-02-19T20:17:20.956Z,3.08
2023-02-19T20:22:42.750Z,3.13
2023-02-19T20:28:04.714Z,3.16
2023-02-19T20:33:26.946Z,3.18
2023-02-19T20:38:49.811Z,3.18
2023-02-19T20:44:12.107Z,3.22
2023-02-19T20:49:34.636Z,3.22
2023-02-19T20:54:57.237Z,3.25
2023-02-19T21:00:19.908Z,3.22
2023-02-19T21:05:43.152Z,3.21
2023-02-19T21:11:05.366Z,3.21
2023-02-19T21:16:32.837Z,3.21
2023-02-19T21:21:54.242Z,3.20
2023-02-19T21:27:19.594Z,3.18
2023-02-19T21:32:41.614Z,3.12
2023-02-19T21:38:04.550Z,3.06
2023-02-19T21:43:28.884Z,2.98
2023-02-19T21:48:51.919Z,2.92
2023-02-19T21:54:24.952Z,2.87
2023-02-19T21:59:48.720Z,2.85
2023-02-19T22:05:10.550Z,2.82
2023-02-19T22:10:32.680Z,2.79
2023-02-19T22:15:54.806Z,2.76
2023-02-19T22:21:17.640Z,2.71
2023-02-19T22:26:39.574Z,2.69
2023-02-19T22:32:01.354Z,2.67
2023-02-19T22:37:23.627Z,2.64
2023-02-19T22:42:45.680Z,2.62
2023-02-19T22:48:07.361Z,2.57
2023-02-19T22:53:29.050Z,2.51
2023-02-19T22:58:51.332Z,2.47
2023-02-19T23:04:13.589Z,2.46
2023-02-19T23:09:35.407Z,2.43
2023-02-19T23:14:57.262Z,2.45
2023-02-19T23:20:19.073Z,2.47
2023-02-19T23:25:41.006Z,2.49
2023-02-19T23:31:02.959Z,2.48
2023-02-19T23:36:25.068Z,2.45
2023-02-19T23:41:52.200Z,2.40
2023-02-19T23:47:14.530Z,2.41
2023-02-19T23:52:36.289Z,2.45
2023-02-19T23:57:58.186Z,2.49
